Time;durP1;ratioP1;P1;durP2;ratioP2;P2;SDS_P1;SDS_P2;PMS_P1;PMS_P2;Temp;Humidity;BMP_temperature;BMP_pressure;BME280_temperature;BME280_humidity;BME280_pressure;Samples;Min_cycle;Max_cycle;Signal;HPM_P1;HPM_P2
2023/04/25 00:00:12;;;;;;;6.70;4.63;;;12.50;95.10;;;;;;4992619;28;20528;-86
2023/04/25 00:02:42;;;;;;;13.57;4.53;;;12.60;95.10;;;;;;4976600;28;20445;-86
2023/04/25 00:05:08;;;;;;;6.33;3.90;;;12.50;95.50;;;;;;4976521;28;20423;-86
2023/04/25 00:07:35;;;;;;;8.20;4.20;;;12.50;95.10;;;;;;4992643;28;20807;-86
2023/04/25 00:10:01;;;;;;;7.30;3.90;;;12.50;95.10;;;;;;4959736;28;20419;-86
2023/04/25 00:12:29;;;;;;;6.53;4.00;;;12.50;95.10;;;;;;4992415;28;20435;-87
2023/04/25 00:14:56;;;;;;;7.33;3.80;;;12.50;95.10;;;;;;4976059;28;20444;-86
2023/04/25 00:17:24;;;;;;;9.83;4.10;;;12.50;95.10;;;;;;5008552;28;20421;-86
2023/04/25 00:19:52;;;;;;;8.10;4.20;;;12.50;95.10;;;;;;4992491;28;20481;-87
2023/04/25 00:22:21;;;;;;;4.80;4.07;;;12.50;95.10;;;;;;4975691;28;20419;-86
2023/04/25 00:24:47;;;;;;;6.63;3.50;;;12.50;95.10;;;;;;4944359;28;20491;-86
2023/04/25 00:27:16;;;;;;;6.77;4.00;;;12.50;95.10;;;;;;5008456;28;20471;-86
2023/04/25 00:29:44;;;;;;;6.97;4.00;;;12.50;95.10;;;;;;4985392;28;20418;-86
2023/04/25 00:32:12;;;;;;;6.77;4.20;;;12.50;95.10;;;;;;4998565;28;20547;-86
2023/04/25 00:34:40;;;;;;;5.50;3.43;;;12.40;95.00;;;;;;4998517;28;20424;-86
2023/04/25 00:37:08;;;;;;;5.50;3.23;;;12.50;95.10;;;;;;4982977;28;20423;-85
2023/04/25 00:39:34;;;;;;;7.60;4.10;;;12.40;95.10;;;;;;5014688;28;20835;-86
2023/04/25 00:42:01;;;;;;;7.77;4.00;;;12.40;95.10;;;;;;4998402;28;20452;-86
2023/04/25 00:44:29;;;;;;;13.50;5.00;;;12.40;95.10;;;;;;4998582;28;20458;-86
2023/04/25 00:46:59;;;;;;;8.87;4.40;;;12.40;95.10;;;;;;4998702;28;20464;-86
2023/04/25 00:49:27;;;;;;;9.53;3.80;;;12.40;95.10;;;;;;4998787;28;20480;-86
2023/04/25 00:51:53;;;;;;;6.20;3.80;;;12.40;95.10;;;;;;4998217;28;20459;-85
2023/04/25 00:54:21;;;;;;;6.83;3.97;;;12.40;95.10;;;;;;4982736;28;20430;-86
2023/04/25 00:56:47;;;;;;;7.70;3.50;;;12.40;95.10;;;;;;5006663;28;20459;-86
2023/04/25 00:59:18;;;;;;;5.17;3.70;;;12.40;95.10;;;;;;4991760;28;20444;-86
2023/04/25 01:01:47;;;;;;;8.20;4.30;;;12.40;95.10;;;;;;4975501;28;20416;-86
2023/04/25 01:04:18;;;;;;;5.10;3.70;;;12.30;95.10;;;;;;4975249;28;20514;-85
2023/04/25 01:06:46;;;;;;;8.67;3.73;;;12.40;95.20;;;;;;4959851;28;20418;-86
2023/04/25 01:09:13;;;;;;;8.23;3.23;;;12.30;95.10;;;;;;4975350;28;20489;-86
2023/04/25 01:11:43;;;;;;;8.83;3.60;;;12.30;95.10;;;;;;4991109;28;20741;-87
2023/04/25 01:14:09;;;;;;;7.03;3.47;;;12.30;95.20;;;;;;4991876;28;20545;-87
2023/04/25 01:16:37;;;;;;;4.80;3.10;;;12.30;95.20;;;;;;4991272;28;20439;-87
2023/04/25 01:19:11;;;;;;;5.87;3.70;;;12.30;95.20;;;;;;4991271;28;20445;-86
2023/04/25 01:21:36;;;;;;;10.93;4.43;;;12.30;95.20;;;;;;4974821;28;20494;-86
2023/04/25 01:24:03;;;;;;;5.03;3.50;;;12.30;95.20;;;;;;4975159;28;20462;-87
2023/04/25 01:26:32;;;;;;;6.70;3.13;;;12.30;95.20;;;;;;4975192;28;20770;-87
2023/04/25 01:28:59;;;;;;;6.67;3.80;;;12.30;95.20;;;;;;4991060;28;20559;-86
2023/04/25 01:31:29;;;;;;;6.97;3.70;;;12.30;95.20;;;;;;4943339;28;20519;-87
2023/04/25 01:33:55;;;;;;;9.47;4.13;;;12.30;95.20;;;;;;4975248;28;20843;-87
2023/04/25 01:36:22;;;;;;;7.50;3.40;;;12.30;95.20;;;;;;4975088;28;20534;-87
2023/04/25 01:38:48;;;;;;;5.73;3.10;;;12.30;95.20;;;;;;4975069;28;20431;-86
2023/04/25 01:41:17;;;;;;;5.40;3.33;;;12.30;95.20;;;;;;4959057;28;20502;-85
2023/04/25 01:43:46;;;;;;;6.47;3.50;;;12.20;95.20;;;;;;4991038;28;20413;-86
2023/04/25 01:46:15;;;;;;;6.33;3.10;;;12.30;95.30;;;;;;4991025;28;20427;-86
2023/04/25 01:48:41;;;;;;;6.30;3.57;;;12.30;95.30;;;;;;4974645;28;20478;-85
2023/04/25 01:51:11;;;;;;;6.20;3.43;;;12.30;95.30;;;;;;4974928;28;20493;-86
2023/04/25 01:53:37;;;;;;;5.50;3.80;;;12.20;95.20;;;;;;4975338;28;20437;-86
2023/04/25 01:56:04;;;;;;;6.10;3.80;;;12.30;95.30;;;;;;4990732;28;20445;-86
2023/04/25 01:58:33;;;;;;;5.30;3.23;;;12.20;95.20;;;;;;5004511;28;20513;-85
2023/04/25 02:01:05;;;;;;;6.87;3.47;;;12.20;95.20;;;;;;5029774;28;20514;-86
2023/04/25 02:03:39;;;;;;;5.80;3.47;;;12.20;95.30;;;;;;4997548;28;20482;-86
2023/04/25 02:06:14;;;;;;;6.33;4.33;;;12.20;95.20;;;;;;4982272;28;20419;-85
2023/04/25 02:08:43;;;;;;;8.80;4.20;;;12.20;95.30;;;;;;5013552;28;20480;-86
2023/04/25 02:11:13;;;;;;;6.23;3.60;;;12.20;95.30;;;;;;4997741;28;20501;-86
2023/04/25 02:13:48;;;;;;;4.40;3.33;;;12.20;95.30;;;;;;5013825;28;20431;-86
2023/04/25 02:16:32;;;;;;;3.97;3.20;;;12.20;95.30;;;;;;5000007;28;20802;-86
2023/04/25 02:19:00;;;;;;;7.93;3.80;;;12.20;95.30;;;;;;5029788;28;20477;-86
2023/04/25 02:21:28;;;;;;;8.00;3.70;;;12.20;95.30;;;;;;4997516;28;20497;-86
2023/04/25 02:23:54;;;;;;;5.30;3.50;;;12.20;95.30;;;;;;4997383;28;20430;-87
2023/04/25 02:26:25;;;;;;;6.13;3.23;;;12.20;95.30;;;;;;4981726;28;20445;-86
2023/04/25 02:28:51;;;;;;;5.03;3.30;;;12.20;95.30;;;;;;4997061;28;20498;-86
2023/04/25 02:31:19;;;;;;;5.17;3.23;;;12.20;95.40;;;;;;4981277;28;20473;-85
2023/04/25 02:33:47;;;;;;;5.90;3.17;;;12.20;95.40;;;;;;4998446;28;20608;-85
2023/04/25 02:36:13;;;;;;;6.47;3.23;;;12.10;95.30;;;;;;5033509;28;20415;-86
2023/04/25 02:38:41;;;;;;;7.77;2.90;;;12.20;95.40;;;;;;4985367;28;20472;-85
2023/04/25 02:41:10;;;;;;;7.00;3.50;;;12.10;95.30;;;;;;5000908;28;20577;-86
2023/04/25 02:43:38;;;;;;;4.80;2.90;;;12.10;95.30;;;;;;4985319;28;20485;-86
2023/04/25 02:46:04;;;;;;;7.63;4.10;;;12.10;95.30;;;;;;5015293;28;20482;-85
2023/04/25 02:48:30;;;;;;;4.23;2.77;;;12.10;95.30;;;;;;4977622;28;20604;-86
2023/04/25 02:51:01;;;;;;;4.00;3.27;;;12.10;95.30;;;;;;4977752;28;20426;-86
2023/04/25 02:53:29;;;;;;;3.20;2.73;;;12.10;95.30;;;;;;4977643;28;20465;-85
2023/04/25 02:55:58;;;;;;;3.90;3.00;;;12.10;95.40;;;;;;4961599;28;20427;-86
2023/04/25 02:58:26;;;;;;;4.40;2.83;;;12.10;95.40;;;;;;5006192;28;20508;-86
2023/04/25 03:00:54;;;;;;;3.47;2.63;;;12.10;95.40;;;;;;5000334;28;20425;-85
2023/04/25 03:03:23;;;;;;;5.23;3.40;;;12.10;95.40;;;;;;5000610;28;20438;-85
2023/04/25 03:05:53;;;;;;;4.90;3.20;;;12.10;95.40;;;;;;5016249;28;20531;-85
2023/04/25 03:08:32;;;;;;;4.73;2.53;;;12.10;95.50;;;;;;5016383;28;20796;-86
2023/04/25 03:11:01;;;;;;;4.83;3.20;;;12.10;95.40;;;;;;4984337;28;20824;-85
2023/04/25 03:13:36;;;;;;;11.23;3.23;;;12.10;95.40;;;;;;5000373;28;20445;-86
2023/04/25 03:16:02;;;;;;;10.13;2.60;;;12.10;95.40;;;;;;5000278;28;20440;-86
2023/04/25 03:18:31;;;;;;;5.30;2.93;;;12.00;95.40;;;;;;4999967;28;20450;-86
2023/04/25 03:21:00;;;;;;;5.93;3.27;;;12.00;95.40;;;;;;5017031;28;20759;-86
2023/04/25 03:23:28;;;;;;;5.07;3.07;;;12.00;95.40;;;;;;4983823;28;20768;-85
2023/04/25 03:26:02;;;;;;;9.77;3.43;;;12.00;95.40;;;;;;5032615;28;20456;-85
2023/04/25 03:28:32;;;;;;;3.63;2.87;;;12.00;95.40;;;;;;5016858;28;20796;-85
2023/04/25 03:31:01;;;;;;;5.73;3.40;;;12.00;95.40;;;;;;4998160;28;20424;-86
2023/04/25 03:33:27;;;;;;;6.87;3.27;;;12.00;95.40;;;;;;5012921;28;20817;-86
2023/04/25 03:36:00;;;;;;;6.63;3.00;;;12.00;95.40;;;;;;4984346;28;20459;-85
2023/04/25 03:38:32;;;;;;;3.73;3.03;;;12.00;95.40;;;;;;5000324;28;20458;-85
2023/04/25 03:41:03;;;;;;;3.83;3.00;;;12.00;95.50;;;;;;4983690;28;20420;-85
2023/04/25 03:43:42;;;;;;;6.87;2.93;;;12.00;95.50;;;;;;4999810;28;20765;-86
2023/04/25 03:46:16;;;;;;;8.53;3.00;;;12.00;95.40;;;;;;5015126;28;20840;-86
2023/04/25 03:48:42;;;;;;;11.00;3.53;;;12.00;95.40;;;;;;4980070;28;20483;-85
2023/04/25 03:51:13;;;;;;;3.67;2.93;;;12.00;95.40;;;;;;5010065;28;20527;-85
2023/04/25 03:53:42;;;;;;;5.80;2.77;;;12.00;95.50;;;;;;4983859;28;20490;-86
2023/04/25 03:56:28;;;;;;;3.97;2.80;;;12.00;95.50;;;;;;5009166;28;20439;-85
2023/04/25 03:59:01;;;;;;;4.20;2.93;;;12.00;95.50;;;;;;4999288;28;20433;-86
2023/04/25 04:01:29;;;;;;;5.40;3.00;;;12.00;95.50;;;;;;4983479;28;20525;-86
2023/04/25 04:03:57;;;;;;;7.90;3.73;;;11.90;95.50;;;;;;5015239;28;20443;-86
2023/04/25 04:06:24;;;;;;;6.27;2.77;;;11.90;95.50;;;;;;5015284;28;20743;-87
2023/04/25 04:08:56;;;;;;;3.40;2.70;;;11.90;95.50;;;;;;5031623;28;20446;-85
2023/04/25 04:11:26;;;;;;;6.50;3.43;;;11.90;95.50;;;;;;4999342;28;20437;-85
2023/04/25 04:13:52;;;;;;;4.47;3.13;;;11.90;95.50;;;;;;4999015;28;20453;-85
2023/04/25 04:16:21;;;;;;;10.63;3.60;;;11.90;95.60;;;;;;5031520;28;20513;-86
2023/04/25 04:18:47;;;;;;;9.50;3.50;;;11.90;95.50;;;;;;4980326;28;20852;-86
2023/04/25 04:21:15;;;;;;;4.43;2.83;;;11.90;95.90;;;;;;4976071;28;20446;-85
2023/04/25 04:23:41;;;;;;;11.50;2.87;;;11.90;95.60;;;;;;4976032;28;20454;-85
2023/04/25 04:26:12;;;;;;;7.13;3.20;;;11.90;95.50;;;;;;4976020;28;20421;-86
2023/04/25 04:29:04;;;;;;;7.03;3.60;;;11.90;95.60;;;;;;4989223;28;20499;-85
2023/04/25 04:31:45;;;;;;;6.10;2.80;;;11.90;95.50;;;;;;4976164;28;20461;-85
2023/04/25 04:34:13;;;;;;;7.80;3.33;;;11.90;95.50;;;;;;4976264;28;20425;-86
2023/04/25 04:36:42;;;;;;;7.87;3.30;;;11.90;95.50;;;;;;4975794;28;20446;-86
2023/04/25 04:39:10;;;;;;;7.60;3.20;;;11.90;95.50;;;;;;4959753;28;20463;-86
2023/04/25 04:42:04;;;;;;;6.27;3.10;;;11.90;95.50;;;;;;4975803;28;20428;-86
2023/04/25 04:44:54;;;;;;;7.70;2.97;;;11.80;95.50;;;;;;4957386;28;20443;-86
2023/04/25 04:47:39;;;;;;;9.30;3.70;;;11.80;95.50;;;;;;4991784;28;20476;-86
2023/04/25 04:50:33;;;;;;;4.57;2.73;;;11.80;95.50;;;;;;4975550;28;20539;-86
2023/04/25 04:53:21;;;;;;;6.30;3.40;;;11.80;95.50;;;;;;4991842;28;20424;-86
2023/04/25 04:55:56;;;;;;;9.40;3.60;;;11.80;95.50;;;;;;4992178;28;20782;-85
2023/04/25 04:58:48;;;;;;;4.20;2.80;;;11.80;95.50;;;;;;4969028;28;20765;-85
2023/04/25 05:01:46;;;;;;;9.43;3.40;;;11.80;95.60;;;;;;4987335;28;20468;-84
2023/04/25 05:04:33;;;;;;;10.40;3.30;;;11.80;95.60;;;;;;5014624;28;20425;-85
2023/04/25 05:07:18;;;;;;;9.57;3.60;;;11.80;95.60;;;;;;5028584;28;20770;-85
2023/04/25 05:10:03;;;;;;;8.33;3.87;;;11.80;95.60;;;;;;5014649;28;20963;-85
2023/04/25 05:12:32;;;;;;;7.47;3.60;;;11.80;95.60;;;;;;4999859;28;20904;-86
2023/04/25 05:15:31;;;;;;;6.47;3.27;;;11.80;95.60;;;;;;4948385;28;20981;-85
2023/04/25 05:18:22;;;;;;;6.13;3.80;;;11.80;95.60;;;;;;4994696;28;20445;-85
2023/04/25 05:21:05;;;;;;;4.70;3.60;;;11.70;95.50;;;;;;5010922;28;20443;-85
2023/04/25 05:23:54;;;;;;;7.43;3.10;;;11.70;95.50;;;;;;4967528;28;20425;-85
2023/04/25 05:26:45;;;;;;;9.80;4.10;;;11.70;95.50;;;;;;4994549;28;20485;-85
2023/04/25 05:29:29;;;;;;;6.40;3.90;;;11.70;95.50;;;;;;4995302;28;20432;-85
2023/04/25 05:32:27;;;;;;;7.33;3.90;;;11.70;95.50;;;;;;4978281;28;21166;-83
2023/04/25 05:34:53;;;;;;;8.53;3.50;;;11.70;95.60;;;;;;4996655;28;20767;-83
2023/04/25 05:37:27;;;;;;;5.47;3.80;;;11.70;95.60;;;;;;4944784;28;20866;-83
2023/04/25 05:39:56;;;;;;;7.97;4.20;;;11.70;95.50;;;;;;4990607;28;20440;-84
2023/04/25 05:42:53;;;;;;;10.80;3.77;;;11.70;95.50;;;;;;4941225;28;20544;-83
2023/04/25 05:45:19;;;;;;;5.40;3.70;;;11.70;95.50;;;;;;5007285;28;20468;-84
2023/04/25 05:48:05;;;;;;;6.40;3.33;;;11.70;95.50;;;;;;4957650;28;20941;-84
2023/04/25 05:50:55;;;;;;;11.50;4.47;;;11.70;95.50;;;;;;4988375;28;20501;-84
2023/04/25 05:53:44;;;;;;;10.57;3.83;;;11.70;95.50;;;;;;4983927;28;20432;-84
2023/04/25 05:56:14;;;;;;;9.00;3.70;;;11.70;95.50;;;;;;4994395;28;20745;-83
2023/04/25 05:58:42;;;;;;;8.00;4.40;;;11.70;95.50;;;;;;4978022;28;20440;-83
2023/04/25 06:01:11;;;;;;;9.30;4.27;;;11.70;95.50;;;;;;4962700;28;20412;-84
2023/04/25 06:03:38;;;;;;;9.40;5.13;;;11.70;95.50;;;;;;4994382;28;20457;-83
2023/04/25 06:06:06;;;;;;;11.30;6.13;;;11.70;95.50;;;;;;4994308;28;20423;-84
2023/04/25 06:08:35;;;;;;;11.97;5.77;;;11.70;95.50;;;;;;4994941;28;20927;-84
2023/04/25 06:11:00;;;;;;;12.37;6.27;;;11.70;95.50;;;;;;4965623;28;20458;-84
2023/04/25 06:13:28;;;;;;;14.27;6.13;;;11.70;95.50;;;;;;4997804;28;20440;-83
2023/04/25 06:15:55;;;;;;;13.60;6.63;;;11.70;95.50;;;;;;5014126;28;20422;-83
2023/04/25 06:18:23;;;;;;;10.93;6.80;;;11.70;95.50;;;;;;4981490;28;20980;-84
2023/04/25 06:20:54;;;;;;;12.00;5.80;;;11.70;95.40;;;;;;4966010;28;20427;-84
2023/04/25 06:23:20;;;;;;;10.80;5.87;;;11.70;95.40;;;;;;4997652;28;20469;-84
2023/04/25 06:25:51;;;;;;;14.17;6.53;;;11.70;95.40;;;;;;4982418;28;20761;-84
2023/04/25 06:28:17;;;;;;;15.37;6.63;;;11.70;95.30;;;;;;4997418;28;20486;-83
2023/04/25 06:30:44;;;;;;;10.37;5.80;;;11.70;95.30;;;;;;5013772;28;20174;-84
2023/04/25 06:33:13;;;;;;;14.20;7.00;;;11.70;95.40;;;;;;4997455;28;20426;-84
2023/04/25 06:35:40;;;;;;;13.20;6.63;;;11.70;95.40;;;;;;4997299;28;20455;-83
2023/04/25 06:38:09;;;;;;;9.10;5.70;;;11.70;95.30;;;;;;5013740;28;20428;-84
2023/04/25 06:40:37;;;;;;;10.33;5.40;;;11.70;95.30;;;;;;4997448;28;20446;-83
2023/04/25 06:43:04;;;;;;;14.40;5.20;;;11.70;95.30;;;;;;4981160;28;20428;-85
2023/04/25 06:45:49;;;;;;;9.57;5.93;;;11.70;95.20;;;;;;4997365;28;20453;-85
2023/04/25 06:48:19;;;;;;;14.23;4.80;;;11.60;95.20;;;;;;4965322;28;20479;-84
2023/04/25 06:50:45;;;;;;;9.70;4.60;;;11.60;95.30;;;;;;4997236;28;20441;-84
2023/04/25 06:53:14;;;;;;;9.13;4.80;;;11.60;95.20;;;;;;4993258;28;20484;-83
2023/04/25 06:55:43;;;;;;;17.23;4.87;;;11.60;95.20;;;;;;4994043;28;20436;-84
2023/04/25 06:58:27;;;;;;;9.70;4.27;;;11.60;95.20;;;;;;4947272;28;20481;-84
2023/04/25 07:00:55;;;;;;;10.97;4.83;;;11.60;95.20;;;;;;4977908;28;20465;-84
2023/04/25 07:03:26;;;;;;;8.60;4.40;;;11.60;95.20;;;;;;4977734;28;20416;-84
2023/04/25 07:06:02;;;;;;;7.67;3.90;;;11.60;95.20;;;;;;4962373;28;20400;-83
2023/04/25 07:08:29;;;;;;;6.27;4.17;;;11.60;95.20;;;;;;4961513;28;20457;-84
2023/04/25 07:10:57;;;;;;;10.83;4.23;;;11.70;95.30;;;;;;4977600;28;20477;-83
2023/04/25 07:13:22;;;;;;;8.77;3.70;;;11.70;95.20;;;;;;4977812;28;20944;-84
2023/04/25 07:15:48;;;;;;;6.77;3.47;;;11.70;95.20;;;;;;4977675;28;20442;-84
2023/04/25 07:18:16;;;;;;;9.80;4.27;;;11.70;95.30;;;;;;4961367;28;20437;-85
2023/04/25 07:20:45;;;;;;;8.37;3.53;;;11.70;95.20;;;;;;4992450;28;20433;-84
2023/04/25 07:23:15;;;;;;;9.07;3.73;;;11.70;95.20;;;;;;4977538;28;20804;-84
2023/04/25 07:25:42;;;;;;;11.67;4.40;;;11.70;95.10;;;;;;4993280;28;20455;-84
2023/04/25 07:28:11;;;;;;;8.10;4.30;;;11.70;95.10;;;;;;4977312;28;20637;-84
2023/04/25 07:30:36;;;;;;;10.07;3.70;;;11.70;95.10;;;;;;4977114;28;20511;-85
2023/04/25 07:33:05;;;;;;;7.70;4.80;;;11.70;95.10;;;;;;4977485;28;20436;-84
2023/04/25 07:35:34;;;;;;;8.90;3.83;;;11.70;95.00;;;;;;4976847;28;20582;-83
2023/04/25 07:38:03;;;;;;;8.73;3.73;;;11.70;95.00;;;;;;4960681;28;20445;-84
2023/04/25 07:40:31;;;;;;;5.73;3.57;;;11.70;94.90;;;;;;4960974;28;20461;-84
2023/04/25 07:43:04;;;;;;;9.87;3.90;;;11.80;94.90;;;;;;4976927;28;20406;-83
2023/04/25 07:45:56;;;;;;;8.73;3.70;;;11.80;94.90;;;;;;4974035;28;20503;-86
2023/04/25 07:48:23;;;;;;;8.83;3.70;;;11.80;94.90;;;;;;4976568;28;20478;-83
2023/04/25 07:50:51;;;;;;;9.37;3.97;;;11.80;94.90;;;;;;4961435;28;20818;-84
2023/04/25 07:53:18;;;;;;;8.63;4.93;;;11.80;95.10;;;;;;4981359;28;20428;-84
2023/04/25 07:55:50;;;;;;;10.57;4.00;;;11.80;94.80;;;;;;4996164;28;20427;-84
2023/04/25 07:58:21;;;;;;;10.00;4.20;;;11.80;94.70;;;;;;4996846;28;20487;-84
2023/04/25 08:00:49;;;;;;;6.00;3.43;;;11.90;94.70;;;;;;4980254;28;20589;-85
2023/04/25 08:03:35;;;;;;;7.30;3.53;;;11.80;94.60;;;;;;4995378;28;20487;-85
2023/04/25 08:06:03;;;;;;;4.70;3.30;;;11.80;94.60;;;;;;5012081;28;20454;-84
2023/04/25 08:08:32;;;;;;;7.03;3.80;;;11.80;94.60;;;;;;4979350;28;20477;-85
2023/04/25 08:11:00;;;;;;;7.13;3.33;;;11.90;94.60;;;;;;4995848;28;20798;-85
2023/04/25 08:13:27;;;;;;;11.23;4.10;;;11.90;94.60;;;;;;4995637;28;20442;-84
2023/04/25 08:15:58;;;;;;;9.97;3.83;;;11.90;94.50;;;;;;4995451;28;20784;-83
2023/04/25 08:18:24;;;;;;;7.23;3.60;;;11.90;94.50;;;;;;5011573;28;20428;-84
2023/04/25 08:20:55;;;;;;;8.03;3.50;;;11.90;94.50;;;;;;4963370;28;20210;-83
2023/04/25 08:23:23;;;;;;;8.40;3.90;;;11.90;94.50;;;;;;4995440;28;20439;-84
2023/04/25 08:26:04;;;;;;;10.67;3.30;;;11.90;94.50;;;;;;5011710;28;20404;-84
2023/04/25 08:28:34;;;;;;;10.20;3.50;;;11.90;94.40;;;;;;4979036;28;20475;-84
2023/04/25 08:31:04;;;;;;;6.27;3.23;;;11.90;94.40;;;;;;4995063;28;20822;-85
2023/04/25 08:33:40;;;;;;;8.60;4.07;;;11.90;94.30;;;;;;4995652;28;20808;-83
2023/04/25 08:36:20;;;;;;;8.53;4.23;;;12.00;94.30;;;;;;4965028;28;20909;-85
2023/04/25 08:38:50;;;;;;;7.73;4.37;;;12.00;94.30;;;;;;5011444;28;20756;-84
2023/04/25 08:41:23;;;;;;;8.10;3.37;;;12.00;94.30;;;;;;4979077;28;20467;-84
2023/04/25 08:43:53;;;;;;;13.20;4.57;;;12.00;94.30;;;;;;4995189;28;20430;-84
2023/04/25 08:46:19;;;;;;;7.90;3.60;;;12.00;94.10;;;;;;5011262;28;20533;-85
2023/04/25 08:49:02;;;;;;;8.80;3.90;;;12.00;94.00;;;;;;4994925;28;20483;-84
2023/04/25 08:51:32;;;;;;;6.50;3.70;;;12.10;94.10;;;;;;4979033;28;20739;-83
2023/04/25 08:54:11;;;;;;;8.17;4.07;;;12.10;94.00;;;;;;4995166;28;20424;-83
2023/04/25 08:56:47;;;;;;;8.87;4.10;;;12.10;94.00;;;;;;4995073;28;20437;-82
2023/04/25 08:59:19;;;;;;;6.57;3.30;;;12.10;94.00;;;;;;4978788;28;20453;-84
2023/04/25 09:01:51;;;;;;;9.33;4.00;;;12.10;93.70;;;;;;4978723;28;20443;-83
2023/04/25 09:04:23;;;;;;;5.00;3.40;;;12.20;93.80;;;;;;4978839;28;20429;-84
2023/04/25 09:06:49;;;;;;;7.67;3.83;;;12.20;93.80;;;;;;4978470;28;20507;-83
2023/04/25 09:09:15;;;;;;;5.40;3.43;;;12.20;93.70;;;;;;4994528;28;20957;-83
2023/04/25 09:11:41;;;;;;;7.37;3.73;;;12.20;93.70;;;;;;4994566;28;20448;-83
2023/04/25 09:14:17;;;;;;;4.97;2.83;;;12.20;93.60;;;;;;4978932;28;20416;-83
2023/04/25 09:16:59;;;;;;;7.40;2.90;;;12.20;93.70;;;;;;4980579;28;20406;-83
2023/04/25 09:19:54;;;;;;;5.23;3.33;;;12.20;93.70;;;;;;4994265;28;20764;-84
2023/04/25 09:22:27;;;;;;;4.83;3.40;;;12.20;93.60;;;;;;4978518;28;20420;-83
2023/04/25 09:24:56;;;;;;;6.77;3.00;;;12.20;93.50;;;;;;4994487;28;20846;-83
2023/04/25 09:27:28;;;;;;;6.33;3.13;;;12.30;93.50;;;;;;4994629;28;20468;-84
2023/04/25 09:30:30;;;;;;;4.90;2.67;;;12.30;93.50;;;;;;4979695;28;20451;-82
2023/04/25 09:33:11;;;;;;;6.50;2.80;;;12.30;93.40;;;;;;4978386;28;20452;-84
2023/04/25 09:35:45;;;;;;;8.77;2.50;;;12.30;93.40;;;;;;4978606;28;20404;-83
2023/04/25 09:38:23;;;;;;;4.63;2.83;;;12.30;93.20;;;;;;4994784;28;20755;-83
2023/04/25 09:40:51;;;;;;;5.23;2.07;;;12.30;93.20;;;;;;5010757;28;20434;-83
2023/04/25 09:43:25;;;;;;;4.00;2.90;;;12.30;93.20;;;;;;4980130;28;20596;-83
2023/04/25 09:45:58;;;;;;;5.77;2.80;;;12.40;93.40;;;;;;5014719;28;20429;-84
2023/04/25 09:48:25;;;;;;;9.50;2.67;;;12.40;93.30;;;;;;5014475;28;20788;-83
2023/04/25 09:51:03;;;;;;;4.50;2.43;;;12.40;93.10;;;;;;4998302;28;20431;-85
2023/04/25 09:53:31;;;;;;;5.13;2.60;;;12.40;92.90;;;;;;5014493;28;20749;-83
2023/04/25 09:56:16;;;;;;;5.40;2.70;;;12.40;92.80;;;;;;4998540;28;20442;-83
2023/04/25 09:58:42;;;;;;;4.70;2.73;;;12.40;92.70;;;;;;4966034;28;20443;-83
2023/04/25 10:01:11;;;;;;;6.70;3.37;;;12.50;92.60;;;;;;4966572;28;20847;-83
2023/04/25 10:03:51;;;;;;;5.60;3.50;;;12.50;92.50;;;;;;4981888;28;20775;-83
2023/04/25 10:06:36;;;;;;;4.23;3.10;;;12.50;92.60;;;;;;4998122;28;20428;-83
2023/04/25 10:09:03;;;;;;;10.30;4.37;;;12.50;92.60;;;;;;4981818;28;20850;-83
2023/04/25 10:11:31;;;;;;;7.10;4.17;;;12.50;92.50;;;;;;4981610;28;20417;-84
2023/04/25 10:13:57;;;;;;;6.40;4.00;;;12.50;92.40;;;;;;4981713;28;20471;-84
2023/04/25 10:16:27;;;;;;;11.17;3.80;;;12.50;92.10;;;;;;4998507;28;20421;-83
2023/04/25 10:18:58;;;;;;;6.07;3.90;;;12.60;91.90;;;;;;4981835;28;20441;-83
2023/04/25 10:21:28;;;;;;;8.03;4.70;;;12.50;92.20;;;;;;4997915;28;20544;-84
2023/04/25 10:23:55;;;;;;;12.00;8.40;;;12.60;92.00;;;;;;4981499;28;20433;-83
2023/04/25 10:26:21;;;;;;;8.70;5.30;;;12.60;92.10;;;;;;4998343;28;20536;-83
2023/04/25 10:29:05;;;;;;;12.53;5.17;;;12.60;92.00;;;;;;5013916;28;20805;-83
2023/04/25 10:31:31;;;;;;;10.97;6.60;;;12.60;91.50;;;;;;4981324;28;20448;-83
2023/04/25 10:34:01;;;;;;;7.77;5.40;;;12.60;91.20;;;;;;4981588;28;20472;-83
2023/04/25 10:36:31;;;;;;;10.13;5.83;;;12.60;91.10;;;;;;4997662;28;20428;-83
2023/04/25 10:39:07;;;;;;;7.87;5.47;;;12.60;91.10;;;;;;4965246;28;20783;-84
2023/04/25 10:41:46;;;;;;;6.17;4.60;;;12.70;91.00;;;;;;4981296;28;20433;-83
2023/04/25 10:44:13;;;;;;;9.43;4.90;;;12.70;91.00;;;;;;4997463;28;20415;-83
2023/04/25 10:46:40;;;;;;;7.57;4.63;;;12.70;91.00;;;;;;4998017;28;20432;-83
2023/04/25 10:49:09;;;;;;;8.80;4.00;;;12.70;90.90;;;;;;4980821;28;20812;-82
2023/04/25 10:51:36;;;;;;;5.70;3.70;;;12.70;90.60;;;;;;5013076;28;20464;-83
2023/04/25 10:54:09;;;;;;;5.37;4.30;;;12.70;90.20;;;;;;4996842;28;20826;-83
2023/04/25 10:56:44;;;;;;;6.33;3.60;;;12.70;89.70;;;;;;4965080;28;20431;-84
2023/04/25 10:59:20;;;;;;;8.57;3.03;;;12.80;89.70;;;;;;4997173;28;20960;-83
2023/04/25 11:01:48;;;;;;;9.30;3.70;;;12.80;89.70;;;;;;4997185;28;20449;-83
2023/04/25 11:04:33;;;;;;;5.40;3.57;;;12.80;89.50;;;;;;4980787;28;20478;-83
2023/04/25 11:07:37;;;;;;;7.97;3.10;;;12.80;89.60;;;;;;4997117;28;20447;-83
2023/04/25 11:10:08;;;;;;;9.70;3.43;;;12.80;89.60;;;;;;4980676;28;20511;-82
2023/04/25 11:12:36;;;;;;;2.97;2.63;;;12.80;89.50;;;;;;4980854;28;20440;-84
2023/04/25 11:15:07;;;;;;;6.60;3.37;;;12.80;89.90;;;;;;4994880;28;20433;-84
2023/04/25 11:17:35;;;;;;;3.77;2.27;;;12.80;90.00;;;;;;4997003;28;20535;-84
2023/04/25 11:20:07;;;;;;;8.00;2.93;;;12.90;90.00;;;;;;4980497;28;20534;-83
2023/04/25 11:22:40;;;;;;;6.77;2.77;;;12.90;89.20;;;;;;4996815;28;20780;-84
2023/04/25 11:25:11;;;;;;;5.50;2.50;;;12.90;89.00;;;;;;4964559;28;20432;-83
2023/04/25 11:27:53;;;;;;;7.10;3.20;;;12.90;89.20;;;;;;4996603;28;20935;-83
2023/04/25 11:30:20;;;;;;;6.53;3.07;;;12.90;88.60;;;;;;4980494;28;20817;-83
2023/04/25 11:32:50;;;;;;;9.80;2.67;;;13.00;88.50;;;;;;4980760;28;20409;-83
2023/04/25 11:35:16;;;;;;;4.37;2.70;;;13.00;88.60;;;;;;4996417;28;20776;-83
2023/04/25 11:37:45;;;;;;;8.03;2.90;;;13.00;88.90;;;;;;4980311;28;20499;-84
2023/04/25 11:40:12;;;;;;;9.47;2.77;;;13.00;89.30;;;;;;4964176;28;20438;-83
2023/04/25 11:42:44;;;;;;;8.23;2.73;;;13.00;89.60;;;;;;4996367;28;20460;-83
2023/04/25 11:45:14;;;;;;;4.63;2.37;;;13.00;89.80;;;;;;4996603;28;20710;-84
2023/04/25 11:47:40;;;;;;;4.90;2.70;;;13.00;90.00;;;;;;4996045;28;20472;-83
2023/04/25 11:50:07;;;;;;;6.63;2.70;;;13.00;90.00;;;;;;4996247;28;20467;-84
2023/04/25 11:52:40;;;;;;;8.40;3.67;;;13.00;90.10;;;;;;4996308;28;20442;-84
2023/04/25 11:55:12;;;;;;;5.70;2.87;;;13.10;90.30;;;;;;4996246;28;20465;-83
2023/04/25 11:57:44;;;;;;;6.23;3.07;;;13.10;90.40;;;;;;4996077;28;20439;-84
2023/04/25 12:00:15;;;;;;;6.80;3.63;;;13.10;90.40;;;;;;4963845;28;20432;-84
2023/04/25 12:02:42;;;;;;;7.77;3.57;;;13.10;90.50;;;;;;4996141;28;20733;-82
2023/04/25 12:05:09;;;;;;;8.30;2.93;;;13.10;90.50;;;;;;4979763;28;20515;-83
2023/04/25 12:07:36;;;;;;;7.63;3.27;;;13.10;90.60;;;;;;4995955;28;20844;-83
2023/04/25 12:10:16;;;;;;;10.60;3.63;;;13.10;90.60;;;;;;4996015;28;20500;-83
2023/04/25 12:12:46;;;;;;;5.63;3.83;;;13.10;90.50;;;;;;4979533;28;20421;-83
2023/04/25 12:15:23;;;;;;;4.70;3.00;;;13.10;90.60;;;;;;4979746;28;20433;-83
2023/04/25 12:17:51;;;;;;;6.60;3.70;;;13.10;90.70;;;;;;4963454;28;20431;-84
2023/04/25 12:20:23;;;;;;;4.50;3.50;;;13.10;90.70;;;;;;4963773;28;20483;-84
2023/04/25 12:22:50;;;;;;;5.50;3.33;;;13.10;90.90;;;;;;4979625;28;20441;-84
2023/04/25 12:25:39;;;;;;;4.70;2.87;;;13.10;91.10;;;;;;4979052;28;20450;-83
2023/04/25 12:28:16;;;;;;;7.90;3.50;;;13.10;91.30;;;;;;4979221;28;20472;-86
2023/04/25 12:31:04;;;;;;;6.13;2.97;;;13.10;91.40;;;;;;4995756;28;20434;-84
2023/04/25 12:33:33;;;;;;;13.33;2.73;;;13.10;91.60;;;;;;4979239;28;20932;-84
2023/04/25 12:36:08;;;;;;;4.17;2.40;;;13.10;91.70;;;;;;4995421;28;20421;-83
2023/04/25 12:38:39;;;;;;;7.90;3.23;;;13.10;91.70;;;;;;4979174;28;20507;-85
2023/04/25 12:41:11;;;;;;;8.03;2.80;;;13.10;91.70;;;;;;4979491;28;20450;-83
2023/04/25 12:43:37;;;;;;;3.67;2.50;;;13.10;91.70;;;;;;4995753;28;20768;-84
2023/04/25 12:46:03;;;;;;;5.17;2.43;;;13.10;91.70;;;;;;5002035;28;20442;-83
2023/04/25 12:48:33;;;;;;;3.97;2.73;;;13.20;91.80;;;;;;4994797;28;20476;-83
2023/04/25 12:51:00;;;;;;;7.00;3.23;;;13.20;91.80;;;;;;4991753;28;20440;-85
2023/04/25 12:53:30;;;;;;;6.27;2.80;;;13.20;91.90;;;;;;5008255;28;20425;-84
2023/04/25 12:55:58;;;;;;;3.83;2.53;;;13.20;91.90;;;;;;4975990;28;20421;-83
2023/04/25 12:58:24;;;;;;;4.73;2.70;;;13.20;91.80;;;;;;5008168;28;20410;-83
2023/04/25 13:00:53;;;;;;;2.80;2.00;;;13.20;91.60;;;;;;4975439;28;20539;-84
2023/04/25 13:03:22;;;;;;;5.03;2.73;;;13.30;91.30;;;;;;4991536;28;20832;-83
2023/04/25 13:05:52;;;;;;;6.50;2.47;;;13.30;91.20;;;;;;4976293;28;20788;-84
2023/04/25 13:08:20;;;;;;;6.47;2.50;;;13.30;91.20;;;;;;4976033;28;20450;-83